Time;durP1;ratioP1;P1;durP2;ratioP2;P2;SDS_P1;SDS_P2;PMS_P1;PMS_P2;Temp;Humidity;BMP_temperature;BMP_pressure;BME280_temperature;BME280_humidity;BME280_pressure;Samples;Min_cycle;Max_cycle;Signal;HPM_P1;HPM_P2
2022/05/10 00:00:37;;;;;;;9.27;8.67;;;;;;;13.47;100.00;100787.59;5020031;28;20191;-49
2022/05/10 00:03:05;;;;;;;8.63;8.03;;;;;;;13.45;100.00;100785.91;5004238;28;20231;-49
2022/05/10 00:05:36;;;;;;;9.23;8.53;;;;;;;13.39;100.00;100790.25;5021040;28;20225;-48
2022/05/10 00:08:04;;;;;;;9.93;9.13;;;;;;;13.35;100.00;100786.00;5018508;28;20267;-49
2022/05/10 00:10:30;;;;;;;8.97;8.27;;;;;;;13.32;100.00;100785.16;5033641;28;20572;-49
2022/05/10 00:12:55;;;;;;;9.53;8.93;;;;;;;13.29;100.00;100786.06;5019450;28;20212;-49
2022/05/10 00:15:21;;;;;;;9.47;8.87;;;;;;;13.26;100.00;100783.50;5025435;28;20232;-49
2022/05/10 00:17:47;;;;;;;9.63;8.93;;;;;;;13.23;100.00;100780.97;5025799;28;20557;-49
2022/05/10 00:20:18;;;;;;;9.27;8.53;;;;;;;13.19;100.00;100780.13;5023051;28;20196;-48
2022/05/10 00:22:44;;;;;;;9.63;8.93;;;;;;;13.16;100.00;100781.91;5024648;28;20307;-49
2022/05/10 00:25:13;;;;;;;9.47;8.70;;;;;;;13.13;100.00;100772.41;5021847;28;20226;-49
2022/05/10 00:27:38;;;;;;;8.87;8.27;;;;;;;13.10;100.00;100772.44;5028108;28;20203;-49
2022/05/10 00:30:06;;;;;;;9.53;8.83;;;;;;;13.08;100.00;100776.78;5026879;28;20179;-49
2022/05/10 00:32:38;;;;;;;9.77;9.00;;;;;;;13.04;100.00;100777.69;5026303;28;20750;-49
2022/05/10 00:35:06;;;;;;;9.97;9.27;;;;;;;13.01;100.00;100778.59;5028655;28;20197;-49
2022/05/10 00:37:32;;;;;;;10.77;9.97;;;;;;;12.99;100.00;100776.91;5025235;28;20279;-49
2022/05/10 00:39:57;;;;;;;10.10;9.40;;;;;;;12.93;100.00;100770.91;5024525;28;20699;-49
2022/05/10 00:42:30;;;;;;;10.20;9.40;;;;;;;12.92;100.00;100776.97;5022751;28;20217;-49
2022/05/10 00:45:08;;;;;;;10.73;9.93;;;;;;;12.89;100.00;100777.00;5025346;28;20191;-49
2022/05/10 00:47:38;;;;;;;9.93;9.23;;;;;;;12.88;100.00;100769.22;5024883;28;20220;-49
2022/05/10 00:50:12;;;;;;;10.50;9.73;;;;;;;12.90;100.00;100760.53;5026209;28;20199;-49
2022/05/10 00:52:52;;;;;;;9.97;9.27;;;;;;;12.91;100.00;100759.66;5027583;28;20219;-49
2022/05/10 00:55:27;;;;;;;11.23;10.40;;;;;;;12.93;100.00;100757.06;5022344;28;20246;-49
2022/05/10 00:58:11;;;;;;;10.47;9.67;;;;;;;12.95;100.00;100753.56;5024704;28;20717;-49
2022/05/10 01:00:38;;;;;;;10.50;9.70;;;;;;;12.95;100.00;100758.75;5021604;28;20193;-49
2022/05/10 01:03:22;;;;;;;10.17;9.37;;;;;;;12.96;100.00;100751.81;5030351;28;20723;-49
2022/05/10 01:05:54;;;;;;;10.23;9.53;;;;;;;12.94;100.00;100756.16;5037121;28;20189;-49
2022/05/10 01:08:22;;;;;;;10.70;9.90;;;;;;;12.92;100.00;100752.75;5029489;28;20192;-49
2022/05/10 01:11:10;;;;;;;9.87;9.17;;;;;;;12.90;100.00;100746.69;5020815;28;20274;-49
2022/05/10 01:14:00;;;;;;;10.80;10.00;;;;;;;12.87;100.00;100741.53;5031614;28;20187;-49
2022/05/10 01:16:26;;;;;;;11.37;10.53;;;;;;;12.83;100.00;100737.22;5024664;28;20249;-49
2022/05/10 01:18:53;;;;;;;10.63;9.80;;;;;;;12.78;100.00;100740.72;5030381;28;20720;-49
2022/05/10 01:21:46;;;;;;;10.90;10.10;;;;;;;12.73;100.00;100733.88;5023298;28;20212;-49
2022/05/10 01:24:17;;;;;;;10.20;9.50;;;;;;;12.68;100.00;100739.13;5028790;28;20646;-49
2022/05/10 01:27:10;;;;;;;11.43;10.53;;;;;;;12.62;100.00;100731.41;5022697;28;20196;-49
2022/05/10 01:29:39;;;;;;;10.93;10.13;;;;;;;12.54;100.00;100733.22;5014975;28;20897;-49
2022/05/10 01:34:58;;;;;;;11.00;10.10;;;;;;;12.41;100.00;100740.25;5026265;28;20202;-49
2022/05/10 01:37:28;;;;;;;10.70;9.63;;;;;;;12.37;100.00;100736.81;5026199;28;20188;-49
2022/05/10 01:40:01;;;;;;;11.67;9.93;;;;;;;12.34;100.00;100729.94;5026019;28;21569;-49
2022/05/10 01:42:43;;;;;;;14.87;10.97;;;;;;;12.32;100.00;100723.91;5022338;28;20692;-49
2022/05/10 01:45:12;;;;;;;12.87;10.33;;;;;;;12.31;100.00;100727.38;5020132;28;20655;-49
2022/05/10 01:47:47;;;;;;;19.17;11.37;;;;;;;12.31;100.00;100732.56;5021239;28;20200;-49
2022/05/10 01:50:31;;;;;;;15.67;11.57;;;;;;;12.32;100.00;100734.28;5025933;28;20202;-49
2022/05/10 01:53:11;;;;;;;20.97;11.47;;;;;;;12.32;100.00;100733.44;5029171;28;20644;-49
2022/05/10 01:55:38;;;;;;;16.13;11.07;;;;;;;12.30;100.00;100730.84;5019222;28;20613;-49
2022/05/10 01:58:16;;;;;;;14.30;10.53;;;;;;;12.31;100.00;100727.38;5026286;28;20195;-48
2022/05/10 02:00:45;;;;;;;21.00;11.80;;;;;;;12.30;100.00;100719.59;5022617;28;20223;-49
2022/05/10 02:03:22;;;;;;;13.27;10.03;;;;;;;12.30;100.00;100720.44;5022493;28;20707;-49
2022/05/10 02:05:53;;;;;;;14.67;11.13;;;;;;;12.29;100.00;100725.66;5026920;28;20676;-50
2022/05/10 02:08:34;;;;;;;14.53;10.67;;;;;;;12.29;100.00;100726.50;5031351;28;20641;-49
2022/05/10 02:11:10;;;;;;;17.40;10.70;;;;;;;12.28;100.00;100724.78;5018840;28;20242;-49
2022/05/10 02:13:44;;;;;;;11.40;10.03;;;;;;;12.28;100.00;100723.94;5024265;28;20179;-49
2022/05/10 02:16:18;;;;;;;11.23;10.23;;;;;;;12.26;100.00;100721.34;5026901;28;20173;-49
2022/05/10 02:18:50;;;;;;;13.07;10.67;;;;;;;12.22;100.00;100724.88;5022968;28;20209;-49
2022/05/10 02:21:27;;;;;;;13.33;11.10;;;;;;;12.18;100.00;100721.41;5021336;28;20209;-49
2022/05/10 02:23:58;;;;;;;13.33;11.33;;;;;;;12.14;100.00;100721.47;5029276;28;20188;-49
2022/05/10 02:26:43;;;;;;;11.87;10.43;;;;;;;12.08;100.00;100718.94;5027170;28;20192;-49
2022/05/10 02:29:26;;;;;;;11.47;10.47;;;;;;;12.01;100.00;100718.13;5025438;28;20181;-50
2022/05/10 02:34:53;;;;;;;12.37;10.87;;;;;;;11.92;100.00;100724.22;5018153;28;20318;-49
2022/05/10 02:37:19;;;;;;;11.30;10.40;;;;;;;11.85;100.00;100718.22;5021426;28;20200;-49
2022/05/10 02:39:44;;;;;;;12.47;11.20;;;;;;;11.83;100.00;100719.94;5024223;28;20226;-49
2022/05/10 02:42:12;;;;;;;12.10;11.03;;;;;;;11.81;100.00;100708.72;5024080;28;20273;-49
2022/05/10 02:44:38;;;;;;;12.87;11.70;;;;;;;11.82;100.00;100713.03;5026022;28;20223;-49
2022/05/10 02:47:05;;;;;;;12.63;11.57;;;;;;;11.83;100.00;100711.28;5007821;28;20618;-49
2022/05/10 02:49:30;;;;;;;12.67;11.50;;;;;;;11.85;100.00;100710.44;5021268;28;20191;-49
2022/05/10 02:51:56;;;;;;;13.13;11.83;;;;;;;11.88;100.00;100715.56;5021095;28;20701;-49
2022/05/10 02:54:21;;;;;;;13.73;12.33;;;;;;;11.89;100.00;100711.25;5022824;28;20194;-50
2022/05/10 02:56:47;;;;;;;13.37;11.97;;;;;;;11.89;100.00;100712.09;5022995;28;20251;-49
2022/05/10 02:59:21;;;;;;;12.40;11.27;;;;;;;11.88;100.00;100714.72;5021676;28;20474;-49
2022/05/10 03:01:59;;;;;;;14.93;11.43;;;;;;;11.83;100.00;100706.97;5020551;28;20226;-49
2022/05/10 03:04:33;;;;;;;12.43;11.17;;;;;;;11.81;100.00;100713.03;5021631;28;20649;-50
2022/05/10 03:06:58;;;;;;;12.27;11.17;;;;;;;11.81;100.00;100713.91;5024203;28;20191;-49
2022/05/10 03:09:24;;;;;;;11.73;10.87;;;;;;;11.83;100.00;100713.88;5023908;28;20719;-49
2022/05/10 03:11:49;;;;;;;11.13;10.23;;;;;;;11.83;100.00;100712.16;5003010;28;20215;-49
2022/05/10 03:14:14;;;;;;;11.57;10.47;;;;;;;11.83;100.00;100706.09;5016429;28;21455;-50
2022/05/10 03:16:40;;;;;;;12.73;11.53;;;;;;;11.83;100.00;100708.69;5019651;28;20199;-50
2022/05/10 03:19:05;;;;;;;11.37;10.37;;;;;;;11.83;100.00;100706.09;5026980;28;20700;-49
2022/05/10 03:21:34;;;;;;;11.53;10.57;;;;;;;11.83;100.00;100706.09;5026576;28;20637;-49
2022/05/10 03:24:00;;;;;;;10.90;10.00;;;;;;;11.81;100.00;100711.31;5023542;28;20211;-49
2022/05/10 03:26:27;;;;;;;11.93;10.93;;;;;;;11.81;100.00;100705.25;5020316;28;20566;-49
2022/05/10 03:28:54;;;;;;;10.43;9.63;;;;;;;11.79;100.00;100704.44;5019301;28;20188;-50
2022/05/10 03:31:22;;;;;;;10.33;9.53;;;;;;;11.79;100.00;100707.03;5019914;28;20580;-50
2022/05/10 03:34:54;;;;;;;11.63;10.60;;;;;;;11.78;100.00;100708.75;5027120;28;20180;-50
2022/05/10 03:36:38;;;;;;;11.13;10.20;;;;;;;11.76;100.00;100717.41;5019085;28;20677;-50
2022/05/10 03:39:04;;;;;;;12.03;11.03;;;;;;;11.72;100.00;100714.84;5028321;28;20214;-49
2022/05/10 03:41:30;;;;;;;12.20;11.07;;;;;;;11.70;100.00;100720.91;5024504;28;20670;-50
2022/05/10 03:43:55;;;;;;;12.43;10.60;;;;;;;11.65;100.00;100718.31;5024454;28;20199;-49
2022/05/10 03:46:20;;;;;;;12.47;11.30;;;;;;;11.62;100.00;100718.38;5025574;28;20211;-49
2022/05/10 03:48:48;;;;;;;11.90;10.83;;;;;;;11.61;100.00;100713.16;5024707;28;20184;-49
2022/05/10 03:51:14;;;;;;;11.37;10.37;;;;;;;11.59;100.00;100714.03;5020145;28;20215;-49
2022/05/10 03:53:39;;;;;;;10.90;10.00;;;;;;;11.59;100.00;100714.03;5023472;28;21226;-49
2022/05/10 03:56:05;;;;;;;11.37;10.37;;;;;;;11.62;100.00;100713.19;5020936;28;20191;-49
2022/05/10 03:58:30;;;;;;;11.03;10.07;;;;;;;11.64;100.00;100710.56;5018339;28;20215;-49
2022/05/10 04:00:55;;;;;;;11.40;10.40;;;;;;;11.67;100.00;100708.81;5021616;28;20542;-49
2022/05/10 04:03:21;;;;;;;10.83;9.90;;;;;;;11.71;100.00;100710.50;5021285;28;20187;-49
2022/05/10 04:05:46;;;;;;;11.63;10.67;;;;;;;11.78;100.00;100711.34;5022311;28;20191;-49
2022/05/10 04:08:11;;;;;;;10.90;10.10;;;;;;;11.87;100.00;100700.03;5017904;28;20275;-49
2022/05/10 04:10:37;;;;;;;10.97;10.03;;;;;;;11.95;100.00;100700.81;5024486;28;20210;-49
2022/05/10 04:13:02;;;;;;;11.80;10.80;;;;;;;12.07;100.00;100699.91;5024917;28;20290;-49
2022/05/10 04:15:28;;;;;;;11.63;10.67;;;;;;;12.22;100.00;100700.63;5021663;28;20278;-49
2022/05/10 04:17:53;;;;;;;11.27;10.37;;;;;;;12.33;100.00;100702.25;5027012;28;20548;-49
2022/05/10 04:20:19;;;;;;;11.53;10.63;;;;;;;12.54;100.00;100705.53;5029835;28;20641;-49
2022/05/10 04:22:44;;;;;;;11.43;10.60;;;;;;;12.86;100.00;100700.84;5026615;28;20257;-49
2022/05/10 04:25:11;;;;;;;11.00;9.90;;;;;;;13.20;100.00;100710.81;5021655;28;20187;-49
2022/05/10 04:27:37;;;;;;;10.47;9.67;;;;;;;13.52;100.00;100707.81;5023039;28;20184;-49
2022/05/10 04:30:03;;;;;;;11.70;10.37;;;;;;;13.72;100.00;100714.47;5023552;28;20172;-50
2022/05/10 04:32:28;;;;;;;10.30;9.30;;;;;;;13.75;100.00;100717.03;5031146;28;20254;-49
2022/05/10 04:34:56;;;;;;;9.23;8.53;;;;;;;13.77;100.00;100728.25;5027285;28;20221;-49
2022/05/10 04:37:22;;;;;;;10.50;9.60;;;;;;;13.78;100.00;100723.91;5026116;28;20271;-49
2022/05/10 04:42:31;;;;;;;10.47;9.57;;;;;;;13.81;100.00;100742.09;5020645;28;20222;-49
2022/05/10 04:44:58;;;;;;;9.50;8.63;;;;;;;13.84;100.00;100745.50;5017909;28;20637;-49
2022/05/10 04:47:26;;;;;;;11.17;10.10;;;;;;;13.87;100.00;100741.97;5032230;28;20196;-49
2022/05/10 04:49:51;;;;;;;9.87;9.03;;;;;;;13.87;100.00;100745.44;5012512;28;20265;-49
2022/05/10 04:52:16;;;;;;;9.77;8.97;;;;;;;13.95;100.00;100745.31;5029003;28;20766;-49
2022/05/10 04:54:42;;;;;;;9.10;8.30;;;;;;;14.07;100.00;100748.63;5029091;28;20184;-50
2022/05/10 04:57:07;;;;;;;9.03;8.33;;;;;;;14.23;100.00;100746.59;5025693;28;20216;-50
2022/05/10 04:59:32;;;;;;;9.17;8.27;;;;;;;14.39;100.00;100740.25;5030772;28;20268;-50
2022/05/10 05:01:58;;;;;;;9.07;8.17;;;;;;;14.55;100.00;100746.06;5022365;28;20210;-49
2022/05/10 05:04:23;;;;;;;9.20;8.40;;;;;;;14.71;100.00;100743.22;5017804;28;20184;-49
2022/05/10 05:06:51;;;;;;;9.67;8.67;;;;;;;14.90;100.00;100747.16;5011816;28;20187;-49
2022/05/10 05:09:16;;;;;;;9.77;8.97;;;;;;;15.16;100.00;100750.13;5027429;28;20261;-49
2022/05/10 05:11:42;;;;;;;9.27;8.57;;;;;;;15.28;100.00;100751.63;5026682;28;20646;-49
2022/05/10 05:14:10;;;;;;;9.13;8.43;;;;;;;15.41;100.00;100755.69;5039661;28;20708;-49
2022/05/10 05:16:35;;;;;;;8.93;8.23;;;;;;;15.63;100.00;100760.44;5034124;28;20637;-49
2022/05/10 05:19:01;;;;;;;9.80;9.00;;;;;;;15.92;100.00;100764.16;5012918;28;20222;-49
2022/05/10 05:21:26;;;;;;;9.60;8.80;;;;;;;16.20;100.00;100766.94;5037156;28;20206;-49
2022/05/10 05:23:51;;;;;;;8.87;8.17;;;;;;;16.53;100.00;100761.78;5030729;28;20192;-49
2022/05/10 05:26:18;;;;;;;8.80;8.10;;;;;;;17.13;100.00;100764.53;5030692;28;20207;-49
2022/05/10 05:28:44;;;;;;;8.60;7.80;;;;;;;17.74;100.00;100766.22;5032530;28;20189;-50
2022/05/10 05:31:11;;;;;;;7.93;7.13;;;;;;;18.58;99.78;100767.00;5031179;28;20819;-50
2022/05/10 05:33:36;;;;;;;7.57;6.87;;;;;;;19.48;97.00;100763.75;5018012;28;20206;-50
2022/05/10 05:36:02;;;;;;;7.47;6.97;;;;;;;20.24;94.55;100759.91;5030118;28;20202;-50
2022/05/10 05:38:27;;;;;;;6.93;6.33;;;;;;;21.01;92.11;100758.38;5031732;28;20302;-50
2022/05/10 05:40:53;;;;;;;7.60;7.00;;;;;;;21.74;89.81;100761.16;5027892;28;21645;-49
2022/05/10 05:43:21;;;;;;;6.53;6.13;;;;;;;22.40;87.41;100756.16;5028894;28;20192;-49
2022/05/10 05:45:47;;;;;;;7.63;6.70;;;;;;;22.92;85.29;100744.69;5028533;28;20203;-50
2022/05/10 05:48:13;;;;;;;6.37;5.87;;;;;;;23.34;84.16;100753.03;5029057;28;20696;-49
2022/05/10 05:50:38;;;;;;;5.90;5.50;;;;;;;23.77;82.63;100751.56;5027383;28;20192;-49
2022/05/10 05:53:04;;;;;;;6.30;5.80;;;;;;;24.05;81.43;100756.97;5041519;28;20285;-49
2022/05/10 05:55:30;;;;;;;6.40;5.90;;;;;;;24.20;80.74;100760.50;5030417;28;20195;-50
2022/05/10 05:57:57;;;;;;;6.10;5.60;;;;;;;24.41;79.73;100754.06;5029019;28;20196;-50
2022/05/10 06:00:25;;;;;;;6.57;6.07;;;;;;;24.50;78.59;100745.56;5032099;28;20372;-49
2022/05/10 06:02:51;;;;;;;7.90;6.50;;;;;;;24.65;78.02;100749.06;5030321;28;20223;-50
2022/05/10 06:05:17;;;;;;;6.30;5.90;;;;;;;24.90;77.24;100739.66;5023033;28;20657;-50
2022/05/10 06:07:43;;;;;;;6.33;5.67;;;;;;;25.26;76.00;100741.78;5024087;28;20237;-50
2022/05/10 06:10:10;;;;;;;7.13;6.43;;;;;;;25.51;74.70;100742.03;5031688;28;20171;-50
2022/05/10 06:12:37;;;;;;;9.43;7.77;;;;;;;25.52;73.50;100741.06;5031533;28;20672;-49
2022/05/10 06:15:08;;;;;;;8.20;7.40;;;;;;;25.47;73.19;100741.38;5037700;28;20719;-49
2022/05/10 06:17:35;;;;;;;7.83;7.20;;;;;;;25.54;73.63;100741.84;5027363;28;20207;-50
2022/05/10 06:20:00;;;;;;;13.63;12.47;;;;;;;25.65;73.31;100749.94;5025011;28;20229;-49
2022/05/10 06:22:26;;;;;;;18.23;16.63;;;;;;;25.78;73.36;100749.97;5026452;28;20223;-50
2022/05/10 06:24:51;;;;;;;14.33;13.13;;;;;;;25.86;72.97;100754.78;5030026;28;20196;-49
2022/05/10 06:27:17;;;;;;;12.27;11.23;;;;;;;25.87;72.26;100745.84;5030490;28;20209;-49
2022/05/10 06:29:44;;;;;;;11.80;10.80;;;;;;;25.60;72.48;100746.72;5021053;28;20184;-50
2022/05/10 06:32:11;;;;;;;13.00;11.90;;;;;;;25.49;72.87;100743.91;5025050;28;20210;-50
2022/05/10 06:34:38;;;;;;;12.67;11.60;;;;;;;25.56;72.92;100753.19;5025761;28;20191;-50
2022/05/10 06:38:15;;;;;;;11.67;10.77;;;;;;;25.82;72.47;100755.94;5033462;28;20218;-49
2022/05/10 06:39:49;;;;;;;10.20;9.40;;;;;;;26.39;70.46;100751.28;5028453;28;20234;-49
2022/05/10 06:42:21;;;;;;;8.00;7.40;;;;;;;26.92;68.53;100748.53;5032680;28;20215;-50
2022/05/10 06:44:49;;;;;;;8.00;7.37;;;;;;;27.35;67.71;100744.59;5032382;28;20184;-50
2022/05/10 06:47:15;;;;;;;8.33;7.73;;;;;;;27.89;67.67;100742.47;5027991;28;20822;-49
2022/05/10 06:49:40;;;;;;;7.73;7.17;;;;;;;28.29;66.42;100744.78;5020363;28;20191;-50
2022/05/10 06:52:05;;;;;;;7.17;6.57;;;;;;;28.58;65.82;100739.03;5025319;28;20696;-50
2022/05/10 06:54:31;;;;;;;7.23;6.73;;;;;;;28.57;65.70;100737.34;5029912;28;20600;-50
2022/05/10 06:56:56;;;;;;;6.80;6.30;;;;;;;28.47;66.00;100734.53;5016626;28;20226;-50
2022/05/10 06:59:21;;;;;;;6.73;6.20;;;;;;;28.25;65.75;100735.34;5043643;28;20202;-49
2022/05/10 07:01:47;;;;;;;6.97;6.37;;;;;;;27.68;67.05;100745.78;5029171;28;20211;-50
2022/05/10 07:04:12;;;;;;;6.63;6.03;;;;;;;27.31;68.05;100740.47;5029534;28;20187;-50
2022/05/10 07:06:37;;;;;;;6.80;6.23;;;;;;;27.21;68.38;100743.81;5022709;28;20188;-50
2022/05/10 07:09:03;;;;;;;6.97;6.30;;;;;;;27.26;68.60;100745.25;5025050;28;20339;-50
2022/05/10 07:11:28;;;;;;;6.77;6.33;;;;;;;27.38;68.31;100739.03;5029673;28;20632;-50
2022/05/10 07:13:54;;;;;;;7.03;6.43;;;;;;;27.48;67.75;100739.25;5030115;28;20194;-50
2022/05/10 07:16:19;;;;;;;6.63;6.20;;;;;;;27.56;67.72;100739.56;5029572;28;20706;-51
2022/05/10 07:18:44;;;;;;;6.73;6.23;;;;;;;27.71;67.72;100742.03;5030584;28;20294;-50
2022/05/10 07:21:10;;;;;;;6.23;5.77;;;;;;;27.83;67.24;100733.13;5030478;28;20183;-50
2022/05/10 07:23:36;;;;;;;5.97;5.57;;;;;;;27.96;66.87;100733.91;5030624;28;20839;-50
2022/05/10 07:26:01;;;;;;;7.77;7.17;;;;;;;28.11;66.61;100728.41;5028432;28;20237;-50
2022/05/10 07:28:29;;;;;;;6.57;6.07;;;;;;;28.07;66.79;100727.78;5030904;28;20187;-50
2022/05/10 07:30:55;;;;;;;7.60;6.80;;;;;;;28.08;66.90;100731.28;5023620;28;20866;-50
2022/05/10 07:33:21;;;;;;;7.10;6.60;;;;;;;27.76;67.61;100724.78;5029748;28;20267;-50
2022/05/10 07:38:31;;;;;;;7.03;6.57;;;;;;;27.57;68.38;100730.63;5028126;28;20210;-50
2022/05/10 07:40:56;;;;;;;6.30;5.90;;;;;;;27.57;68.55;100733.28;5028630;28;20640;-50
2022/05/10 07:43:22;;;;;;;7.33;6.77;;;;;;;27.52;68.97;100732.75;5024396;28;20271;-50
2022/05/10 07:45:50;;;;;;;6.77;6.30;;;;;;;27.43;68.71;100726.28;5016257;28;20216;-50
2022/05/10 07:48:16;;;;;;;7.27;6.60;;;;;;;27.26;68.89;100726.66;5027449;28;20191;-50
2022/05/10 07:50:41;;;;;;;6.80;6.20;;;;;;;27.06;69.31;100719.19;5028239;28;20184;-50
2022/05/10 07:53:14;;;;;;;7.20;6.57;;;;;;;27.04;70.37;100720.25;5019711;28;20219;-50
2022/05/10 07:55:40;;;;;;;7.27;6.67;;;;;;;26.95;71.03;100723.56;5021985;28;20187;-50
2022/05/10 07:58:06;;;;;;;7.20;6.47;;;;;;;26.92;71.02;100724.63;5023300;28;20191;-49
2022/05/10 08:00:33;;;;;;;7.73;7.13;;;;;;;26.82;71.53;100720.94;5021017;28;20195;-50
2022/05/10 08:02:59;;;;;;;8.60;7.80;;;;;;;26.72;71.92;100716.22;5006608;28;20551;-48
2022/05/10 08:05:25;;;;;;;7.47;6.87;;;;;;;26.67;71.59;100725.47;5026745;28;20203;-48
2022/05/10 08:07:51;;;;;;;7.33;6.83;;;;;;;26.54;71.96;100722.84;5025834;28;20276;-48
2022/05/10 08:10:17;;;;;;;6.80;6.27;;;;;;;26.45;72.47;100714.56;5029936;28;20353;-49
2022/05/10 08:12:43;;;;;;;6.70;6.10;;;;;;;26.36;72.52;100715.22;5030426;28;20228;-49
2022/05/10 08:15:09;;;;;;;6.73;6.30;;;;;;;26.24;72.12;100718.72;5036391;28;20206;-48
2022/05/10 08:17:35;;;;;;;6.87;6.37;;;;;;;26.07;72.72;100723.31;5027991;28;20546;-49
2022/05/10 08:20:00;;;;;;;7.13;6.53;;;;;;;26.01;71.93;100721.06;5030092;28;20215;-50
2022/05/10 08:22:26;;;;;;;7.10;6.60;;;;;;;25.84;73.17;100712.44;5008877;28;20210;-50
2022/05/10 08:24:51;;;;;;;7.47;6.83;;;;;;;25.81;73.78;100717.09;5029313;28;20183;-49
2022/05/10 08:27:17;;;;;;;6.90;6.40;;;;;;;25.79;74.25;100726.97;5028083;28;20191;-49
2022/05/10 08:29:43;;;;;;;7.40;6.80;;;;;;;25.67;74.23;100721.53;5028297;28;20175;-49
2022/05/10 08:32:08;;;;;;;6.60;6.10;;;;;;;25.57;74.50;100720.41;5032281;28;20211;-49
2022/05/10 08:34:35;;;;;;;6.67;6.23;;;;;;;25.42;74.82;100720.47;5029261;28;20482;-49
2022/05/10 08:37:04;;;;;;;7.20;6.60;;;;;;;25.33;73.67;100714.91;5025796;28;20187;-49
2022/05/10 08:39:33;;;;;;;7.43;6.90;;;;;;;25.18;74.53;100720.22;5017282;28;20295;-49
2022/05/10 08:42:04;;;;;;;7.27;6.73;;;;;;;25.07;73.87;100712.97;5016263;28;20310;-49
2022/05/10 08:44:35;;;;;;;7.57;7.07;;;;;;;24.92;74.15;100713.94;5017513;28;20723;-49
2022/05/10 08:47:06;;;;;;;7.60;7.00;;;;;;;24.81;74.72;100710.13;5029407;28;20241;-49
2022/05/10 08:49:34;;;;;;;6.67;6.17;;;;;;;24.76;75.09;100708.72;5031787;28;20816;-49
2022/05/10 08:51:59;;;;;;;7.10;6.60;;;;;;;24.82;75.61;100713.66;5031084;28;20207;-51
2022/05/10 08:54:27;;;;;;;7.20;6.70;;;;;;;24.80;75.89;100708.47;5034663;28;20613;-51
2022/05/10 08:57:03;;;;;;;7.90;7.20;;;;;;;24.85;75.37;100708.19;5031090;28;20560;-51
2022/05/10 08:59:37;;;;;;;8.60;7.83;;;;;;;24.90;75.51;100706.06;5031533;28;20229;-50
2022/05/10 09:02:12;;;;;;;7.43;6.87;;;;;;;24.91;75.73;100704.28;5016063;28;20610;-50
2022/05/10 09:04:56;;;;;;;7.47;6.97;;;;;;;24.94;76.76;100709.41;5028831;28;20263;-49
2022/05/10 09:08:01;;;;;;;6.73;6.33;;;;;;;24.95;76.76;100701.34;5034023;28;20189;-50
2022/05/10 09:10:32;;;;;;;6.73;6.23;;;;;;;24.98;76.47;100702.09;5036790;28;20191;-50
2022/05/10 09:13:01;;;;;;;6.60;6.10;;;;;;;25.03;76.29;100700.03;5032237;28;20298;-50
2022/05/10 09:15:29;;;;;;;7.20;6.50;;;;;;;25.04;76.33;100693.75;5036047;28;20201;-50
2022/05/10 09:17:56;;;;;;;6.80;6.30;;;;;;;25.06;76.41;100699.81;5032414;28;20191;-50
2022/05/10 09:20:21;;;;;;;6.67;6.27;;;;;;;25.14;76.99;100692.25;5014353;28;20581;-50
2022/05/10 09:22:59;;;;;;;6.50;6.10;;;;;;;25.21;76.72;100690.88;5032631;28;20195;-50
2022/05/10 09:25:28;;;;;;;7.17;6.60;;;;;;;25.27;76.44;100690.50;5033689;28;20183;-50
2022/05/10 09:27:54;;;;;;;6.90;6.30;;;;;;;25.32;76.16;100689.34;5032479;28;20233;-50
2022/05/10 09:30:32;;;;;;;6.87;6.27;;;;;;;25.36;76.02;100685.53;5032593;28;20653;-50
2022/05/10 09:36:00;;;;;;;6.00;5.60;;;;;;;25.46;76.16;100688.47;5013004;28;20190;-50
2022/05/10 09:38:26;;;;;;;6.60;6.10;;;;;;;25.50;76.09;100684.69;5022627;28;20207;-50
2022/05/10 09:40:52;;;;;;;5.97;5.50;;;;;;;25.51;75.85;100687.22;5035331;28;20183;-50
2022/05/10 09:43:31;;;;;;;6.10;5.70;;;;;;;25.54;75.62;100686.19;5024787;28;20837;-49
2022/05/10 09:46:20;;;;;;;7.03;6.53;;;;;;;25.65;74.93;100677.50;5026682;28;20219;-50
2022/05/10 09:48:47;;;;;;;7.97;7.20;;;;;;;25.73;75.42;100677.84;5011330;28;20576;-48
2022/05/10 09:51:28;;;;;;;7.47;6.87;;;;;;;25.84;75.13;100677.16;5026976;28;20215;-49
2022/05/10 09:53:55;;;;;;;7.20;6.60;;;;;;;25.86;75.24;100668.13;5028867;28;21789;-48
2022/05/10 09:56:23;;;;;;;6.33;5.90;;;;;;;25.93;75.11;100675.69;5025147;28;20554;-48
2022/05/10 09:58:56;;;;;;;5.97;5.57;;;;;;;25.99;75.12;100659.31;5020231;28;21434;-48
2022/05/10 10:01:41;;;;;;;5.83;5.33;;;;;;;26.05;74.62;100668.66;5027910;28;20581;-48
2022/05/10 10:04:41;;;;;;;6.70;6.10;;;;;;;26.13;74.19;100663.72;5024040;28;20241;-48
2022/05/10 10:07:20;;;;;;;6.50;6.00;;;;;;;26.22;74.04;100659.59;4999786;28;20613;-50
2022/05/10 10:09:51;;;;;;;6.87;6.37;;;;;;;26.26;74.05;100658.41;5010570;28;20562;-50
2022/05/10 10:12:32;;;;;;;6.40;6.00;;;;;;;26.39;74.24;100655.75;5023038;28;20217;-50
2022/05/10 10:14:58;;;;;;;6.37;5.90;;;;;;;26.45;73.41;100647.38;5026928;28;20194;-50
2022/05/10 10:17:37;;;;;;;6.13;5.53;;;;;;;26.47;73.04;100651.63;5028876;28;20215;-50
2022/05/10 10:20:20;;;;;;;6.40;6.00;;;;;;;26.48;73.61;100648.00;5009234;28;20565;-50
2022/05/10 10:22:50;;;;;;;6.90;6.40;;;;;;;26.50;72.10;100655.00;5028949;28;20688;-50
2022/05/10 10:25:27;;;;;;;6.80;6.20;;;;;;;26.38;72.42;100644.31;5027141;28;20188;-50
2022/05/10 10:28:31;;;;;;;6.03;5.63;;;;;;;26.46;72.47;100643.78;5022679;28;20266;-50
2022/05/10 10:31:04;;;;;;;5.90;5.50;;;;;;;26.54;72.57;100644.06;5027923;28;20265;-50
2022/05/10 10:33:44;;;;;;;6.20;5.80;;;;;;;26.58;72.49;100640.25;5031341;28;20223;-50
2022/05/10 10:36:16;;;;;;;6.20;5.70;;;;;;;26.58;72.20;100636.72;5028008;28;20205;-50
2022/05/10 10:38:50;;;;;;;6.43;5.90;;;;;;;26.64;72.61;100636.31;5027716;28;20681;-50
2022/05/10 10:41:27;;;;;;;6.10;5.60;;;;;;;26.65;72.30;100632.69;5024045;28;20262;-50
2022/05/10 10:44:04;;;;;;;6.77;6.20;;;;;;;26.79;71.75;100629.06;5031956;28;20191;-50
2022/05/10 10:46:50;;;;;;;6.50;6.10;;;;;;;26.84;70.11;100623.44;5027089;28;20180;-50
2022/05/10 10:49:32;;;;;;;6.40;5.40;;;;;;;26.87;70.01;100618.75;5026708;28;20194;-50
2022/05/10 10:51:58;;;;;;;6.40;5.90;;;;;;;26.99;70.73;100622.31;5026903;28;20324;-50
2022/05/10 10:54:27;;;;;;;6.33;5.83;;;;;;;27.08;68.96;100623.44;5024821;28;20282;-50
2022/05/10 10:57:14;;;;;;;5.53;5.20;;;;;;;27.07;69.19;100617.28;5025857;28;20264;-50
2022/05/10 10:59:57;;;;;;;5.17;4.73;;;;;;;27.15;69.82;100616.72;5024223;28;20243;-50
2022/05/10 11:02:25;;;;;;;5.80;5.40;;;;;;;27.33;68.89;100616.31;5022729;28;20253;-50
2022/05/10 11:05:16;;;;;;;5.60;5.10;;;;;;;27.48;68.75;100612.53;5025722;28;20241;-50
2022/05/10 11:07:54;;;;;;;6.27;5.67;;;;;;;27.58;68.93;100609.16;5019388;28;20688;-50
2022/05/10 11:10:50;;;;;;;6.23;5.63;;;;;;;27.77;66.90;100603.28;5028773;28;20699;-51
2022/05/10 11:13:45;;;;;;;5.77;5.30;;;;;;;27.82;66.51;100601.13;5023559;28;20729;-50
2022/05/10 11:16:42;;;;;;;5.40;5.00;;;;;;;27.89;67.17;100609.47;4999948;28;20199;-50
2022/05/10 11:19:34;;;;;;;5.43;4.57;;;;;;;27.96;67.01;100594.75;5019153;28;20234;-50
2022/05/10 11:22:21;;;;;;;5.17;4.73;;;;;;;28.01;65.69;100591.75;5024590;28;20261;-50
2022/05/10 11:24:46;;;;;;;5.43;5.00;;;;;;;28.00;65.79;100588.22;5022246;28;20202;-49
2022/05/10 11:27:41;;;;;;;5.13;4.73;;;;;;;28.10;64.97;100594.56;5025444;28;20192;-49
2022/05/10 11:30:19;;;;;;;4.80;4.50;;;;;;;28.17;62.73;100578.09;5028436;28;20294;-50
2022/05/10 11:33:13;;;;;;;5.00;4.50;;;;;;;28.20;63.39;100584.03;5030858;28;20774;-50
2022/05/10 11:35:50;;;;;;;5.10;4.70;;;;;;;28.32;63.86;100578.72;5022960;28;20214;-50
2022/05/10 11:38:40;;;;;;;4.07;3.77;;;;;;;28.41;63.71;100581.50;5023589;28;20187;-50
2022/05/10 11:41:27;;;;;;;4.97;4.57;;;;;;;28.49;63.88;100578.22;5032857;28;20187;-50
2022/05/10 11:44:20;;;;;;;4.47;4.17;;;;;;;28.68;63.76;100566.91;5027453;28;20187;-50
2022/05/10 11:47:14;;;;;;;4.80;4.50;;;;;;;28.87;62.93;100560.94;5030591;28;20188;-50